KBTP/BTP METAR and TAF weather

Enter ICAO airport designator
Station Type Date Time Source
KBTP METAR 2021/03/06 00:56 UTC NOAA

KBTP 060056Z AUTO 28005KT 10SM CLR M03/M09 A3013 RMK AO2 SLP228 T10281089 FZRANO


Station Type Date Time Source
KBTP Decoded METAR 2021/03/06 00:56 UTC NOAA

Butler, Butler County Airport/K W Scholter Field, PA, United States (KBTP) 40-47N 079-57W
Mar 05, 2021 - 07:56 PM EST / 2021.03.06 0056 UTC
Wind: from the W (280 degrees) at 6 MPH (5 KT):0
Visibility: 10 mile(s):0
Sky conditions: clear
Temperature: 27.0 F (-2.8 C)
Windchill: 19 F (-7 C):1
Dew Point: 16.0 F (-8.9 C)
Relative Humidity: 62%
Pressure (altimeter): 30.13 in. Hg (1020 hPa)
ob: KBTP 060056Z AUTO 28005KT 10SM CLR M03/M09 A3013 RMK AO2 SLP228 T10281089 FZRANO
cycle: 1

Station Type Date Time Source
KBTP TAF UTC NOAA

Error!

Example: see airport list